Time;durP1;ratioP1;P1;durP2;ratioP2;P2;SDS_P1;SDS_P2;PMS_P1;PMS_P2;Temp;Humidity;BMP_temperature;BMP_pressure;BME280_temperature;BME280_humidity;BME280_pressure;Samples;Min_cycle;Max_cycle;Signal;HPM_P1;HPM_P2
2021/07/12 00:00:22;;;;;;;44.42;32.63;;;;;;;;;;2072579;28;20638;-49
2021/07/12 00:01:22;;;;;;;40.53;32.13;;;;;;;;;;2072003;28;20177;-51
2021/07/12 00:02:22;;;;;;;40.50;31.40;;;;;;;;;;2069233;28;20235;-52
2021/07/12 00:03:22;;;;;;;40.10;31.42;;;;;;;;;;2074037;28;20176;-49
2021/07/12 00:04:23;;;;;;;44.63;32.33;;;;;;;;;;2073940;28;20180;-50
2021/07/12 00:05:24;;;;;;;43.25;33.90;;;;;;;;;;2069230;28;20227;-48
2021/07/12 00:06:24;;;;;;;45.28;33.35;;;;;;;;;;2067188;28;20193;-54
2021/07/12 00:07:24;;;;;;;47.25;34.58;;;;;;;;;;2075346;28;20736;-48
2021/07/12 00:08:24;;;;;;;49.95;34.63;;;;;;;;;;2070326;28;20272;-53
2021/07/12 00:09:25;;;;;;;41.25;33.75;;;;;;;;;;2068809;28;20261;-50
2021/07/12 00:10:26;;;;;;;48.00;33.38;;;;;;;;;;2067215;28;20181;-47
2021/07/12 00:11:27;;;;;;;42.28;32.45;;;;;;;;;;2072841;28;20180;-47
2021/07/12 00:12:27;;;;;;;46.28;34.22;;;;;;;;;;2071857;28;20677;-49
2021/07/12 00:13:28;;;;;;;48.50;35.45;;;;;;;;;;2065550;28;20732;-48
2021/07/12 00:14:28;;;;;;;47.10;33.97;;;;;;;;;;2065547;28;20173;-48
2021/07/12 00:15:29;;;;;;;42.33;32.53;;;;;;;;;;2070810;28;20702;-49
2021/07/12 00:16:29;;;;;;;47.08;34.38;;;;;;;;;;2067109;28;20181;-49
2021/07/12 00:17:29;;;;;;;44.08;33.80;;;;;;;;;;2065266;28;20232;-50
2021/07/12 00:18:30;;;;;;;41.45;32.70;;;;;;;;;;2065288;28;20618;-52
2021/07/12 00:19:30;;;;;;;43.45;33.53;;;;;;;;;;2066901;28;20173;-49
2021/07/12 00:20:30;;;;;;;42.45;33.90;;;;;;;;;;2069818;28;20728;-52
2021/07/12 00:21:30;;;;;;;40.75;33.30;;;;;;;;;;2069692;28;20785;-49
2021/07/12 00:22:31;;;;;;;41.92;32.28;;;;;;;;;;2066533;28;20225;-48
2021/07/12 00:23:31;;;;;;;39.85;31.92;;;;;;;;;;2071246;28;20223;-47
2021/07/12 00:24:31;;;;;;;43.45;32.70;;;;;;;;;;2067709;28;20566;-47
2021/07/12 00:25:32;;;;;;;43.40;32.95;;;;;;;;;;2071089;28;20204;-51
2021/07/12 00:26:32;;;;;;;39.80;31.00;;;;;;;;;;2071966;28;20205;-49
2021/07/12 00:27:32;;;;;;;40.95;32.83;;;;;;;;;;2073355;28;20165;-48
2021/07/12 00:28:33;;;;;;;46.50;34.42;;;;;;;;;;2071364;28;20176;-52
2021/07/12 00:29:33;;;;;;;42.00;32.95;;;;;;;;;;2065389;28;20732;-49
2021/07/12 00:30:33;;;;;;;44.40;34.33;;;;;;;;;;2070078;28;20192;-48
2021/07/12 00:31:34;;;;;;;44.70;34.65;;;;;;;;;;2071411;28;20199;-49
2021/07/12 00:32:36;;;;;;;43.47;34.47;;;;;;;;;;2071938;28;20201;-48
2021/07/12 00:33:36;;;;;;;44.58;34.75;;;;;;;;;;2066402;28;20172;-48
2021/07/12 00:34:36;;;;;;;41.95;32.03;;;;;;;;;;2073177;28;20207;-51
2021/07/12 00:35:36;;;;;;;43.08;32.88;;;;;;;;;;2066671;28;20174;-53
2021/07/12 00:36:37;;;;;;;41.75;32.72;;;;;;;;;;2071026;28;20177;-51
2021/07/12 00:37:38;;;;;;;45.78;34.22;;;;;;;;;;2072718;28;20185;-51
2021/07/12 00:38:39;;;;;;;44.53;33.38;;;;;;;;;;2065519;28;20170;-51
2021/07/12 00:39:39;;;;;;;45.63;33.55;;;;;;;;;;2066473;28;20195;-48
2021/07/12 00:40:40;;;;;;;47.50;34.13;;;;;;;;;;2061522;28;20182;-52
2021/07/12 00:41:40;;;;;;;47.45;35.47;;;;;;;;;;2070821;28;20180;-50
2021/07/12 00:42:40;;;;;;;45.95;35.97;;;;;;;;;;2066296;28;20225;-48
2021/07/12 00:43:41;;;;;;;45.80;35.75;;;;;;;;;;2071227;28;20608;-48
2021/07/12 00:44:42;;;;;;;48.70;35.42;;;;;;;;;;2079984;28;20246;-49
2021/07/12 00:45:42;;;;;;;46.85;33.85;;;;;;;;;;2067744;28;20170;-49
2021/07/12 00:46:43;;;;;;;42.00;32.97;;;;;;;;;;2072220;28;20701;-50
2021/07/12 00:47:43;;;;;;;48.20;34.88;;;;;;;;;;2068934;28;20207;-51
2021/07/12 00:48:44;;;;;;;46.45;33.85;;;;;;;;;;2070903;28;20191;-51
2021/07/12 00:49:44;;;;;;;43.08;34.03;;;;;;;;;;2067020;28;20309;-53
2021/07/12 00:50:45;;;;;;;47.97;33.25;;;;;;;;;;2070898;28;20676;-49
2021/07/12 00:51:46;;;;;;;46.22;35.33;;;;;;;;;;2071756;28;20650;-51
2021/07/12 00:52:47;;;;;;;47.42;34.70;;;;;;;;;;2073614;28;20254;-49
2021/07/12 00:53:47;;;;;;;46.83;34.25;;;;;;;;;;2071674;28;20177;-49
2021/07/12 00:54:56;;;;;;;46.92;36.05;;;;;;;;;;2062356;28;20224;-53
2021/07/12 00:55:59;;;;;;;47.75;36.42;;;;;;;;;;2051029;28;20251;-49
2021/07/12 00:57:01;;;;;;;59.83;39.40;;;;;;;;;;2067723;28;20180;-51
2021/07/12 00:58:06;;;;;;;55.35;37.78;;;;;;;;;;2068912;28;20280;-48
2021/07/12 00:59:08;;;;;;;55.45;37.28;;;;;;;;;;2069596;28;20204;-53
2021/07/12 01:00:15;;;;;;;55.13;37.95;;;;;;;;;;2067400;28;20610;-51
2021/07/12 01:01:15;;;;;;;54.85;39.42;;;;;;;;;;2057445;28;20544;-49
2021/07/12 01:02:16;;;;;;;55.20;39.92;;;;;;;;;;2059443;28;20243;-48
2021/07/12 01:03:18;;;;;;;62.50;39.72;;;;;;;;;;2072380;28;20180;-48
2021/07/12 01:04:19;;;;;;;61.47;39.53;;;;;;;;;;2058576;28;20655;-50
2021/07/12 01:05:20;;;;;;;58.33;40.35;;;;;;;;;;2067701;28;20169;-49
2021/07/12 01:06:24;;;;;;;61.35;41.38;;;;;;;;;;2064580;28;20181;-49
2021/07/12 01:07:24;;;;;;;64.43;43.90;;;;;;;;;;2070147;28;20229;-50
2021/07/12 01:08:25;;;;;;;61.60;41.33;;;;;;;;;;2059033;28;20242;-49
2021/07/12 01:09:39;;;;;;;61.08;40.50;;;;;;;;;;2064941;28;20173;-48
2021/07/12 01:10:41;;;;;;;64.65;42.38;;;;;;;;;;2071193;28;20161;-48
2021/07/12 01:12:02;;;;;;;62.08;41.17;;;;;;;;;;2063786;28;20181;-47
2021/07/12 01:13:02;;;;;;;63.25;40.83;;;;;;;;;;2069584;28;20168;-50
2021/07/12 01:14:16;;;;;;;60.22;42.45;;;;;;;;;;2070648;28;20272;-50
2021/07/12 01:15:33;;;;;;;68.95;43.08;;;;;;;;;;2075872;28;20160;-50
2021/07/12 01:17:13;;;;;;;74.25;47.10;;;;;;;;;;2069733;28;20187;-46
2021/07/12 01:18:33;;;;;;;78.60;47.65;;;;;;;;;;2071300;28;20222;-48
2021/07/12 01:19:53;;;;;;;81.22;48.17;;;;;;;;;;2065926;28;20181;-52
2021/07/12 01:21:02;;;;;;;80.00;48.25;;;;;;;;;;2064721;28;20284;-51
2021/07/12 01:22:35;;;;;;;101.93;51.90;;;;;;;;;;2066870;28;20232;-48
2021/07/12 01:23:35;;;;;;;85.20;50.13;;;;;;;;;;2038606;29;20218;-47
2021/07/12 01:24:53;;;;;;;78.68;50.53;;;;;;;;;;2061172;28;20582;-48
2021/07/12 01:26:12;;;;;;;84.90;48.85;;;;;;;;;;2064181;28;20185;-49
2021/07/12 01:27:13;;;;;;;95.63;49.30;;;;;;;;;;2070617;28;20173;-49
2021/07/12 01:28:32;;;;;;;110.90;51.35;;;;;;;;;;2067681;28;20701;-50
2021/07/12 01:29:51;;;;;;;106.50;50.80;;;;;;;;;;2066700;28;20186;-52
2021/07/12 01:30:52;;;;;;;112.22;50.15;;;;;;;;;;2064807;28;20188;-54
2021/07/12 01:32:07;;;;;;;99.07;52.15;;;;;;;;;;2062895;28;20166;-48
2021/07/12 01:33:20;;;;;;;91.43;51.65;;;;;;;;;;2071189;28;20195;-53
2021/07/12 01:34:32;;;;;;;92.93;50.13;;;;;;;;;;2070651;28;20177;-49
2021/07/12 01:35:47;;;;;;;89.88;49.13;;;;;;;;;;2063483;28;20235;-51
2021/07/12 01:36:52;;;;;;;73.93;49.30;;;;;;;;;;2065737;28;20180;-50
2021/07/12 01:38:06;;;;;;;75.88;48.85;;;;;;;;;;2067498;28;20172;-52
2021/07/12 01:39:09;;;;;;;82.45;52.72;;;;;;;;;;2069013;28;20181;-51
2021/07/12 01:40:15;;;;;;;84.55;52.13;;;;;;;;;;2064709;28;20949;-49
2021/07/12 01:41:15;;;;;;;74.40;49.88;;;;;;;;;;2065332;28;20211;-48
2021/07/12 01:42:22;;;;;;;67.57;47.33;;;;;;;;;;2065277;28;20752;-49
2021/07/12 01:43:28;;;;;;;85.22;50.53;;;;;;;;;;2063230;28;21805;-53
2021/07/12 01:44:32;;;;;;;77.82;47.60;;;;;;;;;;2060121;28;20356;-52
2021/07/12 01:45:38;;;;;;;92.65;46.70;;;;;;;;;;2062201;28;20200;-48
2021/07/12 01:46:42;;;;;;;78.13;44.47;;;;;;;;;;2064612;28;20161;-53
2021/07/12 01:47:45;;;;;;;59.20;43.15;;;;;;;;;;2069067;28;20184;-48
2021/07/12 01:48:49;;;;;;;67.38;45.03;;;;;;;;;;2071354;28;20227;-49
2021/07/12 01:50:03;;;;;;;60.50;43.38;;;;;;;;;;2065486;28;20177;-48
2021/07/12 01:51:06;;;;;;;60.83;43.70;;;;;;;;;;2066479;28;20657;-50
2021/07/12 01:52:23;;;;;;;65.57;44.42;;;;;;;;;;2065224;28;20209;-48
2021/07/12 01:53:43;;;;;;;56.35;42.38;;;;;;;;;;2069399;28;20180;-50
2021/07/12 01:54:46;;;;;;;56.72;41.88;;;;;;;;;;2074000;28;20168;-50
2021/07/12 01:55:57;;;;;;;58.85;42.05;;;;;;;;;;2071319;28;20943;-50
2021/07/12 01:57:06;;;;;;;64.45;42.35;;;;;;;;;;2072197;28;20299;-52
2021/07/12 01:58:07;;;;;;;57.22;42.47;;;;;;;;;;2071781;28;20188;-49
2021/07/12 01:59:21;;;;;;;60.20;41.97;;;;;;;;;;2068340;28;20631;-53
2021/07/12 02:00:23;;;;;;;55.88;42.10;;;;;;;;;;2066115;28;20169;-48
2021/07/12 02:01:31;;;;;;;60.85;41.88;;;;;;;;;;2054753;28;20703;-51
2021/07/12 02:02:37;;;;;;;64.07;42.60;;;;;;;;;;2056646;28;20210;-51
2021/07/12 02:03:43;;;;;;;65.68;43.88;;;;;;;;;;2071360;28;20184;-52
2021/07/12 02:04:45;;;;;;;67.95;45.65;;;;;;;;;;2065228;28;20553;-51
2021/07/12 02:05:46;;;;;;;62.28;44.47;;;;;;;;;;2074234;28;20267;-53
2021/07/12 02:06:47;;;;;;;69.18;43.13;;;;;;;;;;2065886;28;20220;-51
2021/07/12 02:07:51;;;;;;;61.15;42.63;;;;;;;;;;2072955;28;20223;-51
2021/07/12 02:08:54;;;;;;;72.45;42.30;;;;;;;;;;2058671;28;20170;-50
2021/07/12 02:10:04;;;;;;;53.58;40.75;;;;;;;;;;2057948;28;20221;-52
2021/07/12 02:11:09;;;;;;;63.47;43.35;;;;;;;;;;2061935;28;20666;-56
2021/07/12 02:12:13;;;;;;;59.45;42.70;;;;;;;;;;2065496;28;20280;-51
2021/07/12 02:13:19;;;;;;;57.78;42.03;;;;;;;;;;2068397;28;20169;-52
2021/07/12 02:14:32;;;;;;;64.15;43.85;;;;;;;;;;2068068;28;20181;-47
2021/07/12 02:15:35;;;;;;;57.97;41.40;;;;;;;;;;2080574;28;20253;-49
2021/07/12 02:16:43;;;;;;;54.70;39.95;;;;;;;;;;2077548;28;20172;-50
2021/07/12 02:17:44;;;;;;;74.57;44.95;;;;;;;;;;2071954;28;20177;-51
2021/07/12 02:18:54;;;;;;;61.55;44.00;;;;;;;;;;2063866;28;20166;-49
2021/07/12 02:20:09;;;;;;;67.07;45.05;;;;;;;;;;2073752;28;20164;-48
2021/07/12 02:21:10;;;;;;;64.80;44.40;;;;;;;;;;2072755;28;20563;-50
2021/07/12 02:22:11;;;;;;;66.43;46.60;;;;;;;;;;2072676;28;20733;-53
2021/07/12 02:23:25;;;;;;;59.65;42.60;;;;;;;;;;2073077;28;20223;-51
2021/07/12 02:24:30;;;;;;;59.17;44.83;;;;;;;;;;2071447;28;20360;-49
2021/07/12 02:25:32;;;;;;;59.45;44.15;;;;;;;;;;2067151;28;20169;-52
2021/07/12 02:26:37;;;;;;;58.08;42.65;;;;;;;;;;2064131;28;20173;-49
2021/07/12 02:27:37;;;;;;;65.38;44.88;;;;;;;;;;2065396;28;20261;-48
2021/07/12 02:28:42;;;;;;;58.30;40.97;;;;;;;;;;2073154;28;20165;-50
2021/07/12 02:29:43;;;;;;;54.50;40.42;;;;;;;;;;2073569;28;20739;-50
2021/07/12 02:30:44;;;;;;;51.70;39.35;;;;;;;;;;2073026;28;20223;-50
2021/07/12 02:31:44;;;;;;;51.03;39.50;;;;;;;;;;2064302;28;20552;-53
2021/07/12 02:32:46;;;;;;;55.10;40.95;;;;;;;;;;2059598;28;20185;-49
2021/07/12 02:33:48;;;;;;;53.13;40.28;;;;;;;;;;2072091;28;20232;-50
2021/07/12 02:34:50;;;;;;;54.35;40.92;;;;;;;;;;2070720;28;20209;-48
2021/07/12 02:35:53;;;;;;;54.38;39.92;;;;;;;;;;2064488;28;20208;-48
2021/07/12 02:36:55;;;;;;;56.58;39.28;;;;;;;;;;2066674;28;20191;-52
2021/07/12 02:38:04;;;;;;;56.10;41.53;;;;;;;;;;2073792;28;20180;-52
2021/07/12 02:39:05;;;;;;;55.55;42.25;;;;;;;;;;2069709;28;20264;-52
2021/07/12 02:40:07;;;;;;;60.13;43.38;;;;;;;;;;2068972;28;20180;-49
2021/07/12 02:41:11;;;;;;;59.50;43.22;;;;;;;;;;2069873;28;20178;-48
2021/07/12 02:42:12;;;;;;;65.38;44.55;;;;;;;;;;2068186;28;20199;-49
2021/07/12 02:43:14;;;;;;;68.40;46.65;;;;;;;;;;2068980;28;20173;-51
2021/07/12 02:44:15;;;;;;;59.55;43.08;;;;;;;;;;2068622;28;20173;-53
2021/07/12 02:45:17;;;;;;;69.60;45.95;;;;;;;;;;2069418;28;20176;-50
2021/07/12 02:46:24;;;;;;;69.05;45.70;;;;;;;;;;2067866;28;20170;-54
2021/07/12 02:47:26;;;;;;;66.00;46.35;;;;;;;;;;2070946;28;20172;-54
2021/07/12 02:48:29;;;;;;;72.65;48.65;;;;;;;;;;2080675;28;20665;-53
2021/07/12 02:49:29;;;;;;;73.65;48.83;;;;;;;;;;2070759;28;20248;-49
2021/07/12 02:50:31;;;;;;;76.20;48.78;;;;;;;;;;2071708;28;20207;-49
2021/07/12 02:51:43;;;;;;;71.70;47.55;;;;;;;;;;2069716;28;20247;-47
2021/07/12 02:52:59;;;;;;;75.88;47.83;;;;;;;;;;2068455;28;20185;-50
2021/07/12 02:54:01;;;;;;;75.68;47.10;;;;;;;;;;2070033;28;20227;-51
2021/07/12 02:55:02;;;;;;;76.30;48.47;;;;;;;;;;2065730;28;20652;-47
2021/07/12 02:56:04;;;;;;;75.97;49.03;;;;;;;;;;2068634;28;20679;-47
2021/07/12 02:57:07;;;;;;;72.68;49.85;;;;;;;;;;2069856;28;20539;-49
2021/07/12 02:58:07;;;;;;;74.88;48.72;;;;;;;;;;2071778;28;20187;-51
2021/07/12 02:59:08;;;;;;;74.10;48.25;;;;;;;;;;2073164;28;20187;-52
2021/07/12 03:00:10;;;;;;;74.68;48.47;;;;;;;;;;2060614;28;20192;-49
2021/07/12 03:01:11;;;;;;;74.18;48.90;;;;;;;;;;2063817;28;20685;-47
2021/07/12 03:02:11;;;;;;;67.15;46.35;;;;;;;;;;2068705;28;20193;-52
2021/07/12 03:03:14;;;;;;;71.60;45.75;;;;;;;;;;2069471;28;20174;-51
2021/07/12 03:04:15;;;;;;;69.88;46.75;;;;;;;;;;2060471;28;20171;-50
2021/07/12 03:05:16;;;;;;;73.80;49.03;;;;;;;;;;2067939;28;20184;-51
2021/07/12 03:06:19;;;;;;;71.25;46.50;;;;;;;;;;2067851;28;20177;-48
2021/07/12 03:07:26;;;;;;;73.55;48.00;;;;;;;;;;2069433;28;20177;-54
2021/07/12 03:08:31;;;;;;;76.10;47.35;;;;;;;;;;2071719;28;20165;-53
2021/07/12 03:09:37;;;;;;;78.90;49.88;;;;;;;;;;2064500;28;20574;-49
2021/07/12 03:10:42;;;;;;;75.70;49.95;;;;;;;;;;2064145;28;20186;-48
2021/07/12 03:11:47;;;;;;;76.82;47.95;;;;;;;;;;2070394;28;20180;-50
2021/07/12 03:12:49;;;;;;;71.78;46.67;;;;;;;;;;2064864;28;20173;-50
2021/07/12 03:13:54;;;;;;;80.97;52.22;;;;;;;;;;2057888;28;20178;-52
2021/07/12 03:15:05;;;;;;;85.28;52.08;;;;;;;;;;2065208;28;20184;-48
2021/07/12 03:16:08;;;;;;;73.75;49.17;;;;;;;;;;2069187;28;20192;-52
2021/07/12 03:17:12;;;;;;;71.50;47.70;;;;;;;;;;2073046;28;20573;-50
2021/07/12 03:18:22;;;;;;;64.30;46.15;;;;;;;;;;2072516;28;20177;-52
2021/07/12 03:19:28;;;;;;;62.15;43.67;;;;;;;;;;2060009;28;20178;-50
2021/07/12 03:20:29;;;;;;;66.82;45.45;;;;;;;;;;2063419;28;20177;-49
2021/07/12 03:21:30;;;;;;;65.68;45.22;;;;;;;;;;2064362;28;20190;-50
2021/07/12 03:22:32;;;;;;;61.42;44.75;;;;;;;;;;2063625;28;20211;-51
2021/07/12 03:23:44;;;;;;;59.85;42.67;;;;;;;;;;2068727;28;20261;-49
2021/07/12 03:24:46;;;;;;;59.60;41.72;;;;;;;;;;2071970;28;20196;-52
2021/07/12 03:25:57;;;;;;;63.25;44.53;;;;;;;;;;2074259;28;20545;-48
2021/07/12 03:26:58;;;;;;;56.88;40.10;;;;;;;;;;2067878;28;20188;-49
2021/07/12 03:28:01;;;;;;;61.72;42.58;;;;;;;;;;2070881;28;20282;-49
2021/07/12 03:29:03;;;;;;;54.47;42.17;;;;;;;;;;2066580;28;20212;-49
2021/07/12 03:30:04;;;;;;;50.92;39.28;;;;;;;;;;2069292;28;20601;-54
2021/07/12 03:31:08;;;;;;;56.83;41.10;;;;;;;;;;2069616;28;20267;-50
2021/07/12 03:32:09;;;;;;;57.35;41.72;;;;;;;;;;2067560;28;20255;-49
2021/07/12 03:33:11;;;;;;;54.13;39.83;;;;;;;;;;2072486;28;20211;-51
2021/07/12 03:34:13;;;;;;;59.10;41.38;;;;;;;;;;2063171;28;20231;-52
2021/07/12 03:35:15;;;;;;;53.03;41.38;;;;;;;;;;2065145;28;20184;-51
2021/07/12 03:36:17;;;;;;;51.75;39.35;;;;;;;;;;2064001;28;20232;-51
2021/07/12 03:37:19;;;;;;;61.45;42.53;;;;;;;;;;2065422;28;20184;-54
2021/07/12 03:38:20;;;;;;;56.22;41.13;;;;;;;;;;2061018;28;21901;-50
2021/07/12 03:39:24;;;;;;;58.33;41.55;;;;;;;;;;2059486;28;20297;-49
2021/07/12 03:40:24;;;;;;;65.72;41.15;;;;;;;;;;2062818;28;20235;-49
2021/07/12 03:41:26;;;;;;;56.13;41.35;;;;;;;;;;2063748;28;20185;-54
2021/07/12 03:42:26;;;;;;;59.05;42.88;;;;;;;;;;2072465;28;20197;-49
2021/07/12 03:43:28;;;;;;;57.80;42.05;;;;;;;;;;2072696;28;20176;-52
2021/07/12 03:44:29;;;;;;;56.55;42.28;;;;;;;;;;2070606;28;20177;-50
2021/07/12 03:45:29;;;;;;;61.42;42.00;;;;;;;;;;2063059;28;20831;-49
2021/07/12 03:46:29;;;;;;;57.97;39.53;;;;;;;;;;2072926;28;20181;-50
2021/07/12 03:47:32;;;;;;;65.78;41.50;;;;;;;;;;2068675;28;20162;-49
2021/07/12 03:48:44;;;;;;;62.45;41.33;;;;;;;;;;2065724;28;20260;-47
2021/07/12 03:49:49;;;;;;;55.83;39.30;;;;;;;;;;2068593;28;20227;-49
2021/07/12 03:50:50;;;;;;;61.60;41.22;;;;;;;;;;2071426;28;20172;-48
2021/07/12 03:51:51;;;;;;;56.13;38.90;;;;;;;;;;2069853;28;20223;-47
2021/07/12 03:52:52;;;;;;;61.47;42.05;;;;;;;;;;2082240;22;20240;-48
2021/07/12 03:53:53;;;;;;;58.45;41.78;;;;;;;;;;2070181;28;20288;-52
2021/07/12 03:54:53;;;;;;;57.38;41.78;;;;;;;;;;2067912;28;20188;-52
2021/07/12 03:55:53;;;;;;;59.55;39.58;;;;;;;;;;2072106;28;20165;-52
2021/07/12 03:56:54;;;;;;;63.50;41.15;;;;;;;;;;2071433;28;20553;-49
2021/07/12 03:57:54;;;;;;;71.63;41.20;;;;;;;;;;2078318;28;20172;-47
2021/07/12 03:58:55;;;;;;;56.13;40.70;;;;;;;;;;2070973;28;20284;-51
2021/07/12 03:59:55;;;;;;;57.47;39.92;;;;;;;;;;2065012;28;20170;-51
2021/07/12 04:00:56;;;;;;;53.22;39.22;;;;;;;;;;2063907;28;20177;-48
2021/07/12 04:01:56;;;;;;;62.28;42.08;;;;;;;;;;2070542;28;20219;-49
2021/07/12 04:02:56;;;;;;;60.55;42.03;;;;;;;;;;2066479;28;20220;-51
2021/07/12 04:03:57;;;;;;;57.38;38.33;;;;;;;;;;2071687;28;20173;-49
2021/07/12 04:04:57;;;;;;;55.65;39.00;;;;;;;;;;2072759;28;20173;-51
2021/07/12 04:05:58;;;;;;;53.78;38.85;;;;;;;;;;2072776;28;20638;-53
2021/07/12 04:06:58;;;;;;;49.22;36.92;;;;;;;;;;2072619;28;20308;-52
2021/07/12 04:07:58;;;;;;;47.70;36.10;;;;;;;;;;2072790;28;20247;-47
2021/07/12 04:08:59;;;;;;;52.55;37.85;;;;;;;;;;2066744;28;20244;-48
2021/07/12 04:09:59;;;;;;;51.92;39.20;;;;;;;;;;2069566;28;20193;-50
2021/07/12 04:10:59;;;;;;;53.00;39.20;;;;;;;;;;2070452;28;20256;-48
2021/07/12 04:11:59;;;;;;;52.95;38.08;;;;;;;;;;2066282;28;20734;-51
2021/07/12 04:13:00;;;;;;;59.30;38.90;;;;;;;;;;2065414;28;20208;-52
2021/07/12 04:14:00;;;;;;;53.33;38.63;;;;;;;;;;2067565;28;20199;-53
2021/07/12 04:15:01;;;;;;;49.47;36.63;;;;;;;;;;2072186;28;20511;-48
2021/07/12 04:16:02;;;;;;;53.05;38.78;;;;;;;;;;2072335;28;20181;-47
2021/07/12 04:17:02;;;;;;;50.53;37.47;;;;;;;;;;2071646;28;20168;-48
2021/07/12 04:18:02;;;;;;;51.03;37.88;;;;;;;;;;2072310;28;20177;-52
2021/07/12 04:19:03;;;;;;;45.63;35.10;;;;;;;;;;2072136;28;20552;-48
2021/07/12 04:20:04;;;;;;;46.92;35.95;;;;;;;;;;2069568;28;20267;-50
2021/07/12 04:21:04;;;;;;;44.03;34.33;;;;;;;;;;2065701;28;20196;-52
2021/07/12 04:22:04;;;;;;;53.33;38.47;;;;;;;;;;2071652;28;20165;-50
2021/07/12 04:23:05;;;;;;;50.47;37.03;;;;;;;;;;2071445;28;20215;-52
2021/07/12 04:24:05;;;;;;;50.10;35.47;;;;;;;;;;2068271;28;20177;-51
2021/07/12 04:25:05;;;;;;;49.47;36.75;;;;;;;;;;2067800;28;20173;-51
2021/07/12 04:26:06;;;;;;;52.80;37.90;;;;;;;;;;2071868;28;20180;-47
2021/07/12 04:27:06;;;;;;;51.70;37.90;;;;;;;;;;2072646;28;20192;-50
2021/07/12 04:28:07;;;;;;;51.58;35.85;;;;;;;;;;2070788;28;20591;-51
2021/07/12 04:29:07;;;;;;;45.88;36.60;;;;;;;;;;2069041;28;20629;-48
2021/07/12 04:30:08;;;;;;;51.35;38.25;;;;;;;;;;2072336;28;20168;-50
2021/07/12 04:31:11;;;;;;;50.50;38.03;;;;;;;;;;2071862;28;20173;-49
2021/07/12 04:32:12;;;;;;;48.75;35.70;;;;;;;;;;2072166;28;20709;-51
2021/07/12 04:33:12;;;;;;;49.00;37.50;;;;;;;;;;2071589;28;20200;-49
2021/07/12 04:34:12;;;;;;;51.22;36.67;;;;;;;;;;2071627;28;20215;-49
2021/07/12 04:35:14;;;;;;;47.45;35.63;;;;;;;;;;2071152;28;20215;-48
2021/07/12 04:36:14;;;;;;;43.85;34.83;;;;;;;;;;2069967;28;20670;-49
2021/07/12 04:37:15;;;;;;;44.38;33.85;;;;;;;;;;2072387;28;20231;-51
2021/07/12 04:38:15;;;;;;;42.53;33.30;;;;;;;;;;2072548;28;20172;-48
2021/07/12 04:39:16;;;;;;;42.63;32.50;;;;;;;;;;2069969;28;20645;-48
2021/07/12 04:40:16;;;;;;;42.33;33.30;;;;;;;;;;2071614;28;20642;-53
2021/07/12 04:41:16;;;;;;;45.28;32.90;;;;;;;;;;2072419;28;20165;-50
2021/07/12 04:42:17;;;;;;;41.17;32.85;;;;;;;;;;2072242;28;20227;-49
2021/07/12 04:43:17;;;;;;;43.38;32.90;;;;;;;;;;2070827;28;21094;-50
2021/07/12 04:44:17;;;;;;;44.97;35.22;;;;;;;;;;2067265;28;20231;-47
2021/07/12 04:45:17;;;;;;;41.80;31.73;;;;;;;;;;2072280;28;20168;-48
2021/07/12 04:46:23;;;;;;;40.42;30.30;;;;;;;;;;2070274;28;20542;-52
2021/07/12 04:47:25;;;;;;;37.33;30.58;;;;;;;;;;2071398;28;20235;-46
2021/07/12 04:48:28;;;;;;;39.58;30.02;;;;;;;;;;2062818;28;20173;-47
2021/07/12 04:49:29;;;;;;;36.97;30.55;;;;;;;;;;2061734;28;20252;-49
2021/07/12 04:50:29;;;;;;;41.22;31.55;;;;;;;;;;2071474;28;20177;-47
2021/07/12 04:51:30;;;;;;;39.33;31.30;;;;;;;;;;2069293;28;20743;-50
2021/07/12 04:52:30;;;;;;;36.03;30.00;;;;;;;;;;2069670;28;20821;-49
2021/07/12 04:53:30;;;;;;;40.72;32.80;;;;;;;;;;2069564;28;20165;-51
2021/07/12 04:54:31;;;;;;;37.28;29.75;;;;;;;;;;2069870;28;20165;-51
2021/07/12 04:55:31;;;;;;;36.75;29.70;;;;;;;;;;2068130;28;20646;-49
2021/07/12 04:56:33;;;;;;;35.47;30.05;;;;;;;;;;2063726;28;20178;-48
2021/07/12 04:57:34;;;;;;;37.25;31.75;;;;;;;;;;2070388;28;20165;-49
2021/07/12 04:58:41;;;;;;;38.17;30.13;;;;;;;;;;2071529;28;20327;-51
2021/07/12 04:59:41;;;;;;;35.53;29.27;;;;;;;;;;2073655;28;20569;-51
2021/07/12 05:00:42;;;;;;;39.72;31.33;;;;;;;;;;2069519;28;20177;-50
2021/07/12 05:01:42;;;;;;;34.35;27.95;;;;;;;;;;2071513;28;20291;-49
2021/07/12 05:02:42;;;;;;;34.63;29.35;;;;;;;;;;2071500;28;20250;-50
2021/07/12 05:03:43;;;;;;;35.55;29.98;;;;;;;;;;2069047;28;20176;-52
2021/07/12 05:04:43;;;;;;;32.40;27.98;;;;;;;;;;2072391;28;20169;-50
2021/07/12 05:05:43;;;;;;;34.28;29.25;;;;;;;;;;2069724;28;20842;-50
2021/07/12 05:06:44;;;;;;;34.40;29.63;;;;;;;;;;2067328;28;20190;-52
2021/07/12 05:07:44;;;;;;;33.28;28.77;;;;;;;;;;2067774;28;20204;-48
2021/07/12 05:08:45;;;;;;;34.50;27.70;;;;;;;;;;2070225;28;20239;-50
2021/07/12 05:09:45;;;;;;;33.95;27.70;;;;;;;;;;2071219;28;20169;-48
2021/07/12 05:10:45;;;;;;;31.80;27.88;;;;;;;;;;2071316;28;20181;-52
2021/07/12 05:11:46;;;;;;;36.40;31.05;;;;;;;;;;2071642;28;20269;-51
2021/07/12 05:12:46;;;;;;;35.03;28.58;;;;;;;;;;2071679;28;20189;-49
2021/07/12 05:13:46;;;;;;;34.28;29.45;;;;;;;;;;2071220;28;20711;-50
2021/07/12 05:14:46;;;;;;;37.90;30.52;;;;;;;;;;2072074;28;20169;-50
2021/07/12 05:15:47;;;;;;;36.90;28.83;;;;;;;;;;2070035;28;20203;-49
2021/07/12 05:16:47;;;;;;;34.58;28.77;;;;;;;;;;2072739;28;20313;-53
2021/07/12 05:17:47;;;;;;;36.10;28.92;;;;;;;;;;2071610;28;20235;-50
2021/07/12 05:18:48;;;;;;;34.35;29.50;;;;;;;;;;2073344;28;20279;-51
2021/07/12 05:19:48;;;;;;;35.35;27.70;;;;;;;;;;2069726;28;20670;-53
2021/07/12 05:20:48;;;;;;;37.05;28.30;;;;;;;;;;2072340;28;20280;-53
2021/07/12 05:21:49;;;;;;;35.20;28.75;;;;;;;;;;2070790;28;20610;-54
2021/07/12 05:22:49;;;;;;;35.03;27.33;;;;;;;;;;2069658;28;20197;-50
2021/07/12 05:23:49;;;;;;;30.60;27.13;;;;;;;;;;2072226;28;20239;-49
2021/07/12 05:24:49;;;;;;;36.72;30.35;;;;;;;;;;2071414;28;20246;-48
2021/07/12 05:25:50;;;;;;;30.80;26.58;;;;;;;;;;2072446;28;20251;-48
2021/07/12 05:26:50;;;;;;;33.05;27.58;;;;;;;;;;2070064;28;20260;-49
2021/07/12 05:27:50;;;;;;;32.08;27.92;;;;;;;;;;2071353;28;20219;-50
2021/07/12 05:28:50;;;;;;;32.75;27.92;;;;;;;;;;2072426;28;20219;-53
2021/07/12 05:29:51;;;;;;;36.53;29.10;;;;;;;;;;2071438;28;20641;-49
2021/07/12 05:30:51;;;;;;;34.35;29.38;;;;;;;;;;2069432;28;20173;-49
2021/07/12 05:31:52;;;;;;;34.58;28.58;;;;;;;;;;2071617;28;20169;-48
2021/07/12 05:32:52;;;;;;;35.88;29.55;;;;;;;;;;2069801;28;20715;-49
2021/07/12 05:33:52;;;;;;;37.15;30.95;;;;;;;;;;2070152;28;20204;-49
2021/07/12 05:34:52;;;;;;;37.22;30.42;;;;;;;;;;2071788;28;20168;-48
2021/07/12 05:35:53;;;;;;;34.60;28.63;;;;;;;;;;2071868;28;20540;-49
2021/07/12 05:36:53;;;;;;;32.28;28.33;;;;;;;;;;2071667;28;20220;-54
2021/07/12 05:37:53;;;;;;;35.67;29.40;;;;;;;;;;2071977;28;20554;-51
2021/07/12 05:38:53;;;;;;;36.22;28.73;;;;;;;;;;2071821;28;20172;-46
2021/07/12 05:39:54;;;;;;;38.67;29.17;;;;;;;;;;2071551;28;20181;-49
2021/07/12 05:40:54;;;;;;;35.70;29.63;;;;;;;;;;2071153;28;20661;-53
2021/07/12 05:41:54;;;;;;;37.60;29.35;;;;;;;;;;2065993;28;20228;-49
2021/07/12 05:42:54;;;;;;;35.72;29.40;;;;;;;;;;2071990;28;20446;-48
2021/07/12 05:43:55;;;;;;;37.45;29.02;;;;;;;;;;2064397;28;20166;-49
2021/07/12 05:44:55;;;;;;;37.80;30.73;;;;;;;;;;2064276;28;20567;-50
2021/07/12 05:45:55;;;;;;;34.72;30.08;;;;;;;;;;2066481;28;20535;-47
2021/07/12 05:46:56;;;;;;;35.13;29.73;;;;;;;;;;2071273;28;20173;-53
2021/07/12 05:47:56;;;;;;;33.95;29.83;;;;;;;;;;2064560;28;20185;-49
2021/07/12 05:48:56;;;;;;;37.15;29.40;;;;;;;;;;2065614;28;20185;-48
2021/07/12 05:49:57;;;;;;;34.50;29.90;;;;;;;;;;2073262;28;20240;-51
2021/07/12 05:50:57;;;;;;;34.75;29.98;;;;;;;;;;2071977;28;20166;-48
2021/07/12 05:51:57;;;;;;;37.58;29.48;;;;;;;;;;2073005;28;20779;-49
2021/07/12 05:52:58;;;;;;;36.03;29.55;;;;;;;;;;2072224;28;20274;-48
2021/07/12 05:53:58;;;;;;;34.70;28.65;;;;;;;;;;2069567;28;20189;-46
2021/07/12 05:54:58;;;;;;;34.03;29.25;;;;;;;;;;2071717;28;20197;-53
2021/07/12 05:55:59;;;;;;;32.25;27.70;;;;;;;;;;2072973;28;20606;-50
2021/07/12 05:56:59;;;;;;;38.17;29.65;;;;;;;;;;2072007;28;20172;-48
2021/07/12 05:57:59;;;;;;;33.22;27.75;;;;;;;;;;2072138;28;20316;-51
2021/07/12 05:59:00;;;;;;;36.92;29.38;;;;;;;;;;2071942;28;20831;-48
2021/07/12 06:00:00;;;;;;;35.47;29.42;;;;;;;;;;2071236;28;20173;-48
2021/07/12 06:01:00;;;;;;;37.03;30.63;;;;;;;;;;2072564;28;20165;-48
2021/07/12 06:02:00;;;;;;;36.40;29.10;;;;;;;;;;2071360;28;20264;-54
2021/07/12 06:03:01;;;;;;;37.83;30.10;;;;;;;;;;2071561;28;20621;-52
2021/07/12 06:04:01;;;;;;;34.72;29.52;;;;;;;;;;2071648;28;20646;-50
2021/07/12 06:05:02;;;;;;;42.13;32.20;;;;;;;;;;2071821;28;20199;-48